Terminal Aerodrome Forecast
Issued by NWS

Current Version | Previous Version | Text Only | Print | Product List | Glossary On
Versions: 1 2 3 4 5 6 7 8 9 10 11 12 13
000
FTUS45 KBOI 301204 RRA
TAFMYL
TAF
KMYL 301204Z 3012/3112 VRB05KT P6SM VCSH BKN007 OVC020
     FM301400 32013KT 3SM -SHSN OVC007
     FM301800 33015G20KT 2SM -SHSN OVC007
     FM302300 34015KT 4SM BR VCSH OVC015
     FM310400 33012KT 4SM BR VCFG SCT010=

USA.gov is the U.S. government's official web portal to all federal, state and local government web resources and services.